Terminal Aerodrome Forecast
Issued by NWS Portland, OR

Home | Current Version | Previous Version | Text Only | Print | Product List | Glossary On
Versions: 1 2 3 4 5 6 7 8 9 10 11 12 13 14 15 16 17 18 19 20 21 22 23 24 25 26 27 28 29 30 31
991
FTUS46 KPQR 291128
TAFAST
TAF
KAST 291128Z 2912/3012 VRB03KT P6SM OVC009
     FM292000 30009KT P6SM OVC019
     FM300100 30010KT P6SM OVC009
     FM300500 30006KT P6SM OVC004=

USA.gov is the U.S. government's official web portal to all federal, state and local government web resources and services.